Time;durP1;ratioP1;P1;durP2;ratioP2;P2;SDS_P1;SDS_P2;PMS_P1;PMS_P2;Temp;Humidity;BMP_temperature;BMP_pressure;BME280_temperature;BME280_humidity;BME280_pressure;Samples;Min_cycle;Max_cycle;Signal;HPM_P1;HPM_P2
2023/07/15 00:02:15;;;;;;;5.32;1.30;;;;;;;;;;6068000;23;20003;-90
2023/07/15 00:04:40;;;;;;;1.65;1.00;;;;;;;;;;6068780;23;20003;-91
2023/07/15 00:07:06;;;;;;;3.50;1.35;;;;;;;;;;6068522;23;20009;-90
2023/07/15 00:09:33;;;;;;;4.55;1.20;;;;;;;;;;6092097;23;20003;-91
2023/07/15 00:11:59;;;;;;;4.20;1.27;;;;;;;;;;6068028;23;20416;-91
2023/07/15 00:14:26;;;;;;;5.63;1.42;;;;;;;;;;6068035;23;20003;-90
2023/07/15 00:16:51;;;;;;;2.53;1.25;;;;;;;;;;6067856;23;20003;-91
2023/07/15 00:19:19;;;;;;;2.08;1.20;;;;;;;;;;6067980;23;20014;-91
2023/07/15 00:21:47;;;;;;;1.73;0.95;;;;;;;;;;6068112;23;20090;-91
2023/07/15 00:24:15;;;;;;;3.72;1.33;;;;;;;;;;6068291;23;20058;-91
2023/07/15 00:26:41;;;;;;;2.72;1.30;;;;;;;;;;6068144;23;20373;-91
2023/07/15 00:29:06;;;;;;;2.95;0.98;;;;;;;;;;6067780;23;19999;-91
2023/07/15 00:31:37;;;;;;;5.68;1.70;;;;;;;;;;6067981;23;20089;-92
2023/07/15 00:34:02;;;;;;;3.33;1.33;;;;;;;;;;6068581;23;20408;-91
2023/07/15 00:36:29;;;;;;;4.32;1.10;;;;;;;;;;6068403;23;20407;-91
2023/07/15 00:38:54;;;;;;;3.45;1.20;;;;;;;;;;6067805;23;20006;-90
2023/07/15 00:41:20;;;;;;;3.20;1.25;;;;;;;;;;6068130;23;20025;-91
2023/07/15 00:43:52;;;;;;;3.10;1.30;;;;;;;;;;6044088;23;20003;-91
2023/07/15 00:46:17;;;;;;;2.67;1.27;;;;;;;;;;6044130;23;20003;-91
2023/07/15 00:48:49;;;;;;;2.83;1.08;;;;;;;;;;6044048;23;20555;-91
2023/07/15 00:51:14;;;;;;;3.50;1.27;;;;;;;;;;6070176;23;20285;-91
2023/07/15 00:53:39;;;;;;;2.95;1.23;;;;;;;;;;6072049;23;20003;-91
2023/07/15 00:56:05;;;;;;;3.53;1.25;;;;;;;;;;6044920;23;20038;-92
2023/07/15 00:58:31;;;;;;;3.70;1.30;;;;;;;;;;6068819;23;19999;-90
2023/07/15 01:00:56;;;;;;;4.65;1.05;;;;;;;;;;6044278;23;20432;-91
2023/07/15 01:03:21;;;;;;;4.75;1.13;;;;;;;;;;6044481;23;20026;-91
2023/07/15 01:05:47;;;;;;;3.45;1.17;;;;;;;;;;6043891;23;19998;-91
2023/07/15 01:08:12;;;;;;;5.47;1.23;;;;;;;;;;6046860;23;20009;-91
2023/07/15 01:10:37;;;;;;;5.00;1.10;;;;;;;;;;6049117;23;20456;-91
2023/07/15 01:13:05;;;;;;;2.20;1.15;;;;;;;;;;6047956;23;20014;-91
2023/07/15 01:15:30;;;;;;;2.90;1.40;;;;;;;;;;6071717;23;20009;-90
2023/07/15 01:17:56;;;;;;;2.80;1.48;;;;;;;;;;6070998;23;20059;-90
2023/07/15 01:20:25;;;;;;;3.10;1.10;;;;;;;;;;6070105;23;20453;-90
2023/07/15 01:22:50;;;;;;;2.78;1.10;;;;;;;;;;6045764;23;20009;-92
2023/07/15 01:25:16;;;;;;;4.40;1.30;;;;;;;;;;6069959;23;19995;-92
2023/07/15 01:27:44;;;;;;;3.70;1.55;;;;;;;;;;6069532;23;20022;-91
2023/07/15 01:30:10;;;;;;;3.03;1.20;;;;;;;;;;6046622;23;20050;-91
2023/07/15 01:32:35;;;;;;;1.90;1.05;;;;;;;;;;6043802;23;19999;-92
2023/07/15 01:35:03;;;;;;;2.67;1.00;;;;;;;;;;6067937;23;20030;-91
2023/07/15 01:37:34;;;;;;;2.03;0.98;;;;;;;;;;6069110;23;20328;-91
2023/07/15 01:39:59;;;;;;;3.97;1.35;;;;;;;;;;6043737;23;19998;-91
2023/07/15 01:42:24;;;;;;;1.60;1.05;;;;;;;;;;6055215;23;20450;-91
2023/07/15 01:44:50;;;;;;;7.68;1.42;;;;;;;;;;6091607;23;20445;-92
2023/07/15 01:47:15;;;;;;;2.05;1.00;;;;;;;;;;6067533;23;20014;-91
2023/07/15 01:49:42;;;;;;;2.53;1.10;;;;;;;;;;6069106;23;19999;-90
2023/07/15 01:52:07;;;;;;;2.75;1.02;;;;;;;;;;6069052;23;20257;-91
2023/07/15 01:54:33;;;;;;;2.03;1.40;;;;;;;;;;6069297;23;20006;-91
2023/07/15 01:56:58;;;;;;;2.90;1.30;;;;;;;;;;6067095;23;20017;-91
2023/07/15 01:59:23;;;;;;;2.47;1.00;;;;;;;;;;6091575;23;20007;-91
2023/07/15 02:01:49;;;;;;;7.00;1.30;;;;;;;;;;6067423;23;20017;-90
2023/07/15 02:04:14;;;;;;;2.75;1.08;;;;;;;;;;6067649;23;20022;-91
2023/07/15 02:06:40;;;;;;;4.32;1.45;;;;;;;;;;6067217;23;20014;-91
2023/07/15 02:09:07;;;;;;;3.65;1.10;;;;;;;;;;6067617;23;20002;-90
2023/07/15 02:11:39;;;;;;;7.13;1.52;;;;;;;;;;6091405;23;20026;-90
2023/07/15 02:14:04;;;;;;;4.95;1.60;;;;;;;;;;6069105;23;19995;-90
2023/07/15 02:16:29;;;;;;;4.10;1.13;;;;;;;;;;6067352;23;20033;-91
2023/07/15 02:18:57;;;;;;;2.65;1.17;;;;;;;;;;6067644;23;20471;-91
2023/07/15 02:21:30;;;;;;;3.72;1.08;;;;;;;;;;6068996;23;20050;-90
2023/07/15 02:23:55;;;;;;;6.18;1.20;;;;;;;;;;6068755;23;20412;-90
2023/07/15 02:26:21;;;;;;;5.22;1.08;;;;;;;;;;6068797;23;20003;-90
2023/07/15 02:28:46;;;;;;;2.55;1.20;;;;;;;;;;6069238;23;20074;-90
2023/07/15 02:31:12;;;;;;;1.48;0.77;;;;;;;;;;6068048;23;19999;-90
2023/07/15 02:33:38;;;;;;;4.65;1.45;;;;;;;;;;6070165;23;20027;-90
2023/07/15 02:36:04;;;;;;;1.73;1.17;;;;;;;;;;6072092;23;20401;-90
2023/07/15 02:38:31;;;;;;;3.78;1.20;;;;;;;;;;6094864;23;20483;-90
2023/07/15 02:40:56;;;;;;;2.38;1.08;;;;;;;;;;6075168;23;20009;-90
2023/07/15 02:43:24;;;;;;;2.65;1.17;;;;;;;;;;6093345;23;20086;-90
2023/07/15 02:45:53;;;;;;;4.85;1.15;;;;;;;;;;6072556;23;20002;-90
2023/07/15 02:48:21;;;;;;;2.28;1.35;;;;;;;;;;6070356;23;19999;-90
2023/07/15 02:50:53;;;;;;;1.83;1.00;;;;;;;;;;6094585;23;20030;-91
2023/07/15 02:53:18;;;;;;;1.98;1.10;;;;;;;;;;6071818;23;20331;-91
2023/07/15 02:55:44;;;;;;;2.53;1.17;;;;;;;;;;6068895;23;20074;-91
2023/07/15 02:58:09;;;;;;;2.17;1.15;;;;;;;;;;6067455;23;20011;-91
2023/07/15 03:00:36;;;;;;;4.68;1.40;;;;;;;;;;6069217;23;20014;-91
2023/07/15 03:03:01;;;;;;;7.35;1.20;;;;;;;;;;6066814;23;20222;-91
2023/07/15 03:05:28;;;;;;;3.20;1.52;;;;;;;;;;6066581;23;20455;-90
2023/07/15 03:07:53;;;;;;;1.90;1.17;;;;;;;;;;6090790;23;20403;-90
2023/07/15 03:10:19;;;;;;;2.63;1.30;;;;;;;;;;6066858;23;20011;-90
2023/07/15 03:12:44;;;;;;;5.57;1.70;;;;;;;;;;6068420;23;20010;-90
2023/07/15 03:15:09;;;;;;;7.30;1.70;;;;;;;;;;6067174;23;20002;-91
2023/07/15 03:17:38;;;;;;;2.25;1.30;;;;;;;;;;6068603;23;20463;-90
2023/07/15 03:20:22;;;;;;;9.05;1.42;;;;;;;;;;6066908;23;20011;-91
2023/07/15 03:22:50;;;;;;;3.72;1.50;;;;;;;;;;6066947;23;20078;-90
2023/07/15 03:25:16;;;;;;;2.53;1.23;;;;;;;;;;6066577;23;20010;-90
2023/07/15 03:27:41;;;;;;;3.58;1.33;;;;;;;;;;6067051;23;19999;-91
2023/07/15 03:30:07;;;;;;;5.70;1.70;;;;;;;;;;6068971;23;20006;-90
2023/07/15 03:32:36;;;;;;;2.05;1.25;;;;;;;;;;6070244;23;20003;-90
2023/07/15 03:35:03;;;;;;;3.95;1.15;;;;;;;;;;6070238;23;20360;-90
2023/07/15 03:37:29;;;;;;;4.35;1.77;;;;;;;;;;6070510;23;20021;-91
2023/07/15 03:39:54;;;;;;;3.88;1.70;;;;;;;;;;6069052;23;20035;-91
2023/07/15 03:42:19;;;;;;;2.72;1.73;;;;;;;;;;6068690;23;20038;-90
2023/07/15 03:44:44;;;;;;;8.65;1.83;;;;;;;;;;6092912;23;20003;-91
2023/07/15 03:47:10;;;;;;;3.58;1.60;;;;;;;;;;6068892;23;20054;-90
2023/07/15 03:49:35;;;;;;;3.15;1.65;;;;;;;;;;6068975;23;20078;-90
2023/07/15 03:52:00;;;;;;;4.40;1.70;;;;;;;;;;6070190;23;20003;-89
2023/07/15 03:54:26;;;;;;;3.22;1.45;;;;;;;;;;6069099;23;20074;-89
2023/07/15 03:56:51;;;;;;;2.75;1.52;;;;;;;;;;6069039;23;20003;-90
2023/07/15 03:59:16;;;;;;;1.70;1.25;;;;;;;;;;6069244;23;20036;-90
2023/07/15 04:01:44;;;;;;;2.35;1.45;;;;;;;;;;6072794;23;20011;-90
2023/07/15 04:04:09;;;;;;;6.60;1.42;;;;;;;;;;6074128;23;20404;-90
2023/07/15 04:06:35;;;;;;;4.05;1.80;;;;;;;;;;6072965;23;20051;-91
2023/07/15 04:09:00;;;;;;;3.28;1.42;;;;;;;;;;6072497;23;20011;-85
2023/07/15 04:11:26;;;;;;;4.47;1.58;;;;;;;;;;6072269;23;19999;-84
2023/07/15 04:13:54;;;;;;;3.90;1.60;;;;;;;;;;6071657;23;20022;-90
2023/07/15 04:16:19;;;;;;;6.53;1.63;;;;;;;;;;6073327;23;20009;-90
2023/07/15 04:18:45;;;;;;;4.60;1.80;;;;;;;;;;6069654;23;20062;-90
2023/07/15 04:21:10;;;;;;;3.92;1.30;;;;;;;;;;6079210;23;20054;-82
2023/07/15 04:23:36;;;;;;;4.15;1.60;;;;;;;;;;6070054;23;20002;-82
2023/07/15 04:26:02;;;;;;;2.80;1.75;;;;;;;;;;6067476;23;20010;-81
2023/07/15 04:28:27;;;;;;;5.75;1.35;;;;;;;;;;6072299;23;20396;-81
2023/07/15 04:30:52;;;;;;;4.35;1.60;;;;;;;;;;6090882;23;20017;-81
2023/07/15 04:33:18;;;;;;;3.50;1.75;;;;;;;;;;6066862;23;20030;-81
2023/07/15 04:35:43;;;;;;;1.98;1.45;;;;;;;;;;6090755;23;20003;-81
2023/07/15 04:38:09;;;;;;;2.88;1.30;;;;;;;;;;6068771;23;20016;-81
2023/07/15 04:40:35;;;;;;;3.33;1.90;;;;;;;;;;6066004;23;20394;-81
2023/07/15 04:43:00;;;;;;;2.33;1.50;;;;;;;;;;6066627;23;20272;-82
2023/07/15 04:45:26;;;;;;;3.17;1.55;;;;;;;;;;6068481;23;20013;-80
2023/07/15 04:47:54;;;;;;;2.03;1.60;;;;;;;;;;6066605;23;20002;-82
2023/07/15 04:50:19;;;;;;;7.85;1.60;;;;;;;;;;6068107;23;20019;-80
2023/07/15 04:52:44;;;;;;;2.53;1.60;;;;;;;;;;6068242;23;20077;-80
2023/07/15 04:55:10;;;;;;;3.50;1.63;;;;;;;;;;6068396;23;20006;-81
2023/07/15 04:57:35;;;;;;;5.35;1.40;;;;;;;;;;6066565;23;20038;-81
2023/07/15 05:00:00;;;;;;;4.30;1.98;;;;;;;;;;6066807;23;20003;-81
2023/07/15 05:02:25;;;;;;;2.35;1.52;;;;;;;;;;6066184;23;20039;-80
2023/07/15 05:04:51;;;;;;;3.78;1.73;;;;;;;;;;6066457;23;20009;-81
2023/07/15 05:07:16;;;;;;;7.72;1.63;;;;;;;;;;6067191;23;20006;-81
2023/07/15 05:09:42;;;;;;;8.30;2.00;;;;;;;;;;6066842;23;20003;-80
2023/07/15 05:12:09;;;;;;;5.78;1.63;;;;;;;;;;6066510;23;20419;-81
2023/07/15 05:14:35;;;;;;;3.42;1.70;;;;;;;;;;6068185;23;20109;-81
2023/07/15 05:17:00;;;;;;;2.80;1.52;;;;;;;;;;6066268;23;20388;-82
2023/07/15 05:19:26;;;;;;;4.13;1.60;;;;;;;;;;6067941;23;20435;-81
2023/07/15 05:21:51;;;;;;;6.00;1.75;;;;;;;;;;6069537;23;20009;-82
2023/07/15 05:24:16;;;;;;;4.07;1.60;;;;;;;;;;6068288;23;20002;-81
2023/07/15 05:26:42;;;;;;;3.00;1.65;;;;;;;;;;6066865;23;20411;-82
2023/07/15 05:29:10;;;;;;;2.78;1.30;;;;;;;;;;6066449;23;20003;-81
2023/07/15 05:31:35;;;;;;;2.65;1.35;;;;;;;;;;6068666;23;20378;-82
2023/07/15 05:34:00;;;;;;;2.35;1.30;;;;;;;;;;6069325;23;20006;-82
2023/07/15 05:36:26;;;;;;;4.10;1.20;;;;;;;;;;6069870;23;19999;-81
2023/07/15 05:38:51;;;;;;;2.50;1.00;;;;;;;;;;6068955;23;20078;-81
2023/07/15 05:41:17;;;;;;;3.10;1.40;;;;;;;;;;6068452;23;20002;-83
2023/07/15 05:43:43;;;;;;;3.40;1.20;;;;;;;;;;6071422;23;20026;-83
2023/07/15 05:46:11;;;;;;;2.17;0.95;;;;;;;;;;6044284;23;20415;-83
2023/07/15 05:48:36;;;;;;;1.42;0.90;;;;;;;;;;6044093;23;20332;-83
2023/07/15 05:51:02;;;;;;;3.58;1.10;;;;;;;;;;6045547;23;20009;-83
2023/07/15 05:53:27;;;;;;;3.65;1.15;;;;;;;;;;6043282;23;20009;-83
2023/07/15 05:55:52;;;;;;;2.65;1.13;;;;;;;;;;6066713;23;20417;-84
2023/07/15 05:58:20;;;;;;;2.17;1.20;;;;;;;;;;6069098;23;20021;-83
2023/07/15 06:00:45;;;;;;;4.70;1.30;;;;;;;;;;6042268;23;20086;-84
2023/07/15 06:03:11;;;;;;;5.97;1.00;;;;;;;;;;6067205;23;20373;-84
2023/07/15 06:05:36;;;;;;;1.90;1.00;;;;;;;;;;6042011;23;20031;-85
2023/07/15 06:08:01;;;;;;;2.85;1.23;;;;;;;;;;6042276;23;20006;-84
2023/07/15 06:10:27;;;;;;;2.35;1.02;;;;;;;;;;6042349;23;20057;-84
2023/07/15 06:12:52;;;;;;;2.22;0.80;;;;;;;;;;6066574;23;20054;-85
2023/07/15 06:15:18;;;;;;;2.35;0.90;;;;;;;;;;6042618;23;20402;-84
2023/07/15 06:17:43;;;;;;;2.17;1.02;;;;;;;;;;6067737;23;20002;-85
2023/07/15 06:20:09;;;;;;;2.53;1.10;;;;;;;;;;6067852;23;20006;-85
2023/07/15 06:22:34;;;;;;;1.70;1.00;;;;;;;;;;6042289;23;20032;-83
2023/07/15 06:24:59;;;;;;;3.53;1.30;;;;;;;;;;6068459;23;20078;-84
2023/07/15 06:27:25;;;;;;;3.97;1.52;;;;;;;;;;6042564;23;20014;-85
2023/07/15 06:29:50;;;;;;;2.85;1.30;;;;;;;;;;6042804;23;19994;-84
2023/07/15 06:32:15;;;;;;;3.78;1.40;;;;;;;;;;6066193;23;20009;-84
2023/07/15 06:34:41;;;;;;;3.22;1.15;;;;;;;;;;6041814;23;20006;-84
2023/07/15 06:37:06;;;;;;;3.58;1.30;;;;;;;;;;6042666;23;20097;-84
2023/07/15 06:39:31;;;;;;;5.47;1.20;;;;;;;;;;6066147;23;20003;-85
2023/07/15 06:41:59;;;;;;;2.83;1.05;;;;;;;;;;6048552;23;20011;-84
2023/07/15 06:44:24;;;;;;;3.08;1.20;;;;;;;;;;6090255;23;19995;-85
2023/07/15 06:46:50;;;;;;;2.50;1.00;;;;;;;;;;6066135;23;20419;-85
2023/07/15 06:49:15;;;;;;;5.38;1.40;;;;;;;;;;6066474;23;20002;-85
2023/07/15 06:51:40;;;;;;;3.58;1.13;;;;;;;;;;6067520;23;20083;-85
2023/07/15 06:54:06;;;;;;;3.55;1.20;;;;;;;;;;6090043;23;20448;-85
2023/07/15 06:56:31;;;;;;;6.93;1.40;;;;;;;;;;6066614;23;20021;-85
2023/07/15 06:58:56;;;;;;;3.30;1.00;;;;;;;;;;6066013;23;20010;-85
2023/07/15 07:01:22;;;;;;;4.35;1.15;;;;;;;;;;6068141;23;20023;-84
2023/07/15 07:03:47;;;;;;;2.30;1.08;;;;;;;;;;6067206;23;19999;-84
2023/07/15 07:06:12;;;;;;;2.67;1.17;;;;;;;;;;6066657;23;20022;-83
2023/07/15 07:08:38;;;;;;;6.07;1.48;;;;;;;;;;6066853;23;20007;-83
2023/07/15 07:11:03;;;;;;;1.80;1.10;;;;;;;;;;6069141;23;20445;-83
2023/07/15 07:13:31;;;;;;;2.75;1.40;;;;;;;;;;6065147;23;20009;-83
2023/07/15 07:15:57;;;;;;;1.92;0.90;;;;;;;;;;6067649;23;20289;-83
2023/07/15 07:18:23;;;;;;;2.42;1.20;;;;;;;;;;6066240;23;20011;-83
2023/07/15 07:20:48;;;;;;;1.60;0.95;;;;;;;;;;6067810;23;20086;-83
2023/07/15 07:23:13;;;;;;;1.92;0.75;;;;;;;;;;6065325;23;20007;-83
2023/07/15 07:25:40;;;;;;;4.90;1.27;;;;;;;;;;6065693;23;20010;-83
2023/07/15 07:28:05;;;;;;;5.15;1.05;;;;;;;;;;6065919;23;20002;-83
2023/07/15 07:30:31;;;;;;;3.10;1.02;;;;;;;;;;6065288;23;19999;-83
2023/07/15 07:32:56;;;;;;;2.47;1.40;;;;;;;;;;6067319;23;20025;-82
2023/07/15 07:35:21;;;;;;;4.75;1.38;;;;;;;;;;6067233;23;20439;-84
2023/07/15 07:37:46;;;;;;;4.10;1.10;;;;;;;;;;6067400;23;19999;-83
2023/07/15 07:40:12;;;;;;;0.55;0.38;;;;;;;;;;6065134;23;20014;-83
2023/07/15 07:42:37;;;;;;;4.20;1.17;;;;;;;;;;6087517;23;20006;-83
2023/07/15 07:45:17;;;;;;;3.17;1.13;;;;;;;;;;6088029;23;20033;-83
2023/07/15 07:47:43;;;;;;;2.53;1.15;;;;;;;;;;6064165;23;20078;-83
2023/07/15 07:50:08;;;;;;;3.45;1.30;;;;;;;;;;6065355;23;20458;-83
2023/07/15 07:52:33;;;;;;;5.25;1.20;;;;;;;;;;6063735;23;20463;-83
2023/07/15 07:54:59;;;;;;;2.45;1.30;;;;;;;;;;6088356;23;20077;-83
2023/07/15 07:57:24;;;;;;;2.28;0.90;;;;;;;;;;6063925;23;20483;-82
2023/07/15 07:59:49;;;;;;;3.45;1.45;;;;;;;;;;6064345;23;20042;-83
2023/07/15 08:02:15;;;;;;;5.50;1.35;;;;;;;;;;6063626;23;20003;-83
2023/07/15 08:04:40;;;;;;;4.15;1.20;;;;;;;;;;6063199;23;19999;-83
2023/07/15 08:07:05;;;;;;;2.78;1.38;;;;;;;;;;6064194;23;20326;-83
2023/07/15 08:09:33;;;;;;;2.47;0.82;;;;;;;;;;6064896;23;20055;-83
2023/07/15 08:11:58;;;;;;;1.67;0.80;;;;;;;;;;6063357;23;19999;-83
2023/07/15 08:14:24;;;;;;;3.08;1.20;;;;;;;;;;6088674;23;20013;-82
2023/07/15 08:16:50;;;;;;;2.55;1.20;;;;;;;;;;6066326;23;20013;-82
2023/07/15 08:19:16;;;;;;;4.82;1.45;;;;;;;;;;6065305;23;19999;-84
2023/07/15 08:21:41;;;;;;;1.50;0.70;;;;;;;;;;6064088;23;20050;-84
2023/07/15 08:24:06;;;;;;;4.32;1.10;;;;;;;;;;6089714;23;20511;-82
2023/07/15 08:26:32;;;;;;;2.53;1.25;;;;;;;;;;6065380;23;20058;-82
2023/07/15 08:28:58;;;;;;;3.22;1.40;;;;;;;;;;6065927;23;20114;-83
2023/07/15 08:31:26;;;;;;;3.13;1.30;;;;;;;;;;6065347;23;20003;-82
2023/07/15 08:33:52;;;;;;;2.03;0.88;;;;;;;;;;6066311;23;20013;-82
2023/07/15 08:36:17;;;;;;;9.10;1.40;;;;;;;;;;6066317;23;19999;-82
2023/07/15 08:38:43;;;;;;;2.55;1.27;;;;;;;;;;6090001;23;20289;-82
2023/07/15 08:41:09;;;;;;;2.78;1.20;;;;;;;;;;6028861;23;1453421;-82
2023/07/15 08:43:34;;;;;;;4.43;1.48;;;;;;;;;;6070860;23;20372;-84
2023/07/15 08:46:01;;;;;;;3.20;1.23;;;;;;;;;;6070051;23;20003;-82
2023/07/15 08:48:27;;;;;;;6.45;1.33;;;;;;;;;;6067766;23;20003;-82
2023/07/15 08:50:56;;;;;;;4.35;1.30;;;;;;;;;;6044022;23;20010;-81
2023/07/15 08:53:24;;;;;;;2.78;1.27;;;;;;;;;;6042998;23;20090;-82
2023/07/15 08:55:50;;;;;;;5.78;1.58;;;;;;;;;;6042853;23;20339;-82
2023/07/15 08:58:16;;;;;;;4.30;1.20;;;;;;;;;;6042400;23;20426;-81
2023/07/15 09:00:41;;;;;;;4.85;1.27;;;;;;;;;;6068618;23;20029;-81
2023/07/15 09:03:06;;;;;;;2.80;1.13;;;;;;;;;;6042773;23;20399;-81
2023/07/15 09:05:31;;;;;;;7.13;1.85;;;;;;;;;;6066764;23;20074;-80
2023/07/15 09:07:57;;;;;;;3.83;1.30;;;;;;;;;;6067914;23;20002;-82
2023/07/15 09:10:23;;;;;;;2.47;1.20;;;;;;;;;;6042890;23;20459;-85
2023/07/15 09:12:52;;;;;;;2.30;1.00;;;;;;;;;;6066746;23;20003;-84
2023/07/15 09:15:18;;;;;;;3.88;0.98;;;;;;;;;;6042913;23;20009;-83
2023/07/15 09:17:53;;;;;;;2.22;0.88;;;;;;;;;;6067736;23;20423;-82
2023/07/15 09:20:19;;;;;;;3.10;1.10;;;;;;;;;;6067884;23;20002;-82
2023/07/15 09:22:49;;;;;;;1.85;1.00;;;;;;;;;;6066545;23;20014;-84
2023/07/15 09:25:17;;;;;;;2.90;1.15;;;;;;;;;;6042346;23;20005;-83
2023/07/15 09:27:42;;;;;;;7.40;1.10;;;;;;;;;;6066226;23;19999;-82
2023/07/15 09:30:09;;;;;;;3.25;0.90;;;;;;;;;;6068048;23;20154;-84
2023/07/15 09:32:34;;;;;;;7.03;1.05;;;;;;;;;;6043226;23;20087;-85
2023/07/15 09:35:00;;;;;;;2.95;1.02;;;;;;;;;;6043281;23;20042;-85
2023/07/15 09:37:29;;;;;;;1.95;0.98;;;;;;;;;;6066695;23;20010;-85
2023/07/15 09:40:04;;;;;;;2.60;0.90;;;;;;;;;;6068546;23;20324;-91
2023/07/15 09:42:29;;;;;;;2.92;1.20;;;;;;;;;;6055672;23;20137;-85
2023/07/15 09:44:55;;;;;;;1.58;0.90;;;;;;;;;;6067077;23;19999;-85
2023/07/15 09:47:20;;;;;;;2.22;1.20;;;;;;;;;;6068223;23;20022;-86
2023/07/15 09:49:45;;;;;;;2.65;0.90;;;;;;;;;;6066726;23;20522;-86
2023/07/15 09:52:11;;;;;;;3.50;1.17;;;;;;;;;;6066744;23;20014;-87
2023/07/15 09:54:39;;;;;;;2.17;1.15;;;;;;;;;;6067915;23;20061;-85
2023/07/15 09:57:15;;;;;;;2.83;1.27;;;;;;;;;;6068945;23;20018;-85
2023/07/15 09:59:40;;;;;;;2.08;1.17;;;;;;;;;;6067400;23;20009;-86
2023/07/15 10:02:15;;;;;;;2.10;1.27;;;;;;;;;;6068329;23;20396;-85
2023/07/15 10:04:43;;;;;;;5.35;1.45;;;;;;;;;;6067376;23;20388;-84
2023/07/15 10:07:08;;;;;;;4.75;1.52;;;;;;;;;;6066524;23;20303;-85
2023/07/15 10:09:35;;;;;;;4.57;1.70;;;;;;;;;;6066704;23;20365;-85
2023/07/15 10:12:02;;;;;;;2.60;1.33;;;;;;;;;;6069653;23;20342;-85
2023/07/15 10:14:29;;;;;;;1.83;1.15;;;;;;;;;;6071848;23;19994;-86
2023/07/15 10:17:12;;;;;;;4.53;1.33;;;;;;;;;;6069169;23;20366;-85
2023/07/15 10:19:41;;;;;;;1.77;0.80;;;;;;;;;;6068018;23;20320;-86
2023/07/15 10:22:07;;;;;;;2.05;0.88;;;;;;;;;;6067563;23;20006;-86
2023/07/15 10:24:33;;;;;;;3.17;1.23;;;;;;;;;;6067549;23;20006;-86
2023/07/15 10:27:00;;;;;;;2.58;1.02;;;;;;;;;;6066925;23;20054;-86
2023/07/15 10:29:25;;;;;;;2.25;1.23;;;;;;;;;;6067452;23;20086;-85
2023/07/15 10:32:07;;;;;;;2.20;1.00;;;;;;;;;;6069807;23;20440;-86
2023/07/15 10:34:36;;;;;;;1.60;1.00;;;;;;;;;;6091170;23;20394;-86
2023/07/15 10:37:11;;;;;;;3.42;1.13;;;;;;;;;;6066858;23;20411;-87
2023/07/15 10:39:37;;;;;;;5.13;1.20;;;;;;;;;;6067117;23;20003;-88
2023/07/15 10:42:10;;;;;;;4.35;1.10;;;;;;;;;;6067149;23;20011;-87
2023/07/15 10:44:44;;;;;;;2.10;1.30;;;;;;;;;;6066843;23;20353;-88
2023/07/15 10:47:10;;;;;;;2.67;1.20;;;;;;;;;;6066947;23;20367;-87
2023/07/15 10:49:35;;;;;;;3.80;1.33;;;;;;;;;;6067082;23;20082;-86
2023/07/15 10:52:02;;;;;;;2.72;1.25;;;;;;;;;;6091125;23;20003;-87
2023/07/15 10:54:32;;;;;;;3.78;1.60;;;;;;;;;;6066712;23;20423;-87
2023/07/15 10:56:57;;;;;;;3.38;1.30;;;;;;;;;;6091086;23;19999;-88
2023/07/15 10:59:24;;;;;;;2.38;1.40;;;;;;;;;;6067150;23;20443;-86
2023/07/15 11:01:49;;;;;;;2.50;1.20;;;;;;;;;;6066918;23;20011;-87
2023/07/15 11:04:18;;;;;;;2.80;1.27;;;;;;;;;;6066874;23;20005;-87
2023/07/15 11:06:43;;;;;;;3.47;1.55;;;;;;;;;;6067175;23;20353;-87
2023/07/15 11:09:15;;;;;;;4.47;1.40;;;;;;;;;;6067169;23;20004;-88
2023/07/15 11:11:41;;;;;;;1.85;1.35;;;;;;;;;;6067312;23;20450;-87
2023/07/15 11:14:17;;;;;;;2.15;1.02;;;;;;;;;;6068615;23;20305;-87
2023/07/15 11:16:43;;;;;;;5.07;1.40;;;;;;;;;;6066853;23;20115;-87
2023/07/15 11:19:15;;;;;;;2.95;1.30;;;;;;;;;;6066772;23;20014;-86
2023/07/15 11:21:44;;;;;;;4.90;1.75;;;;;;;;;;6066916;23;20387;-87
2023/07/15 11:24:10;;;;;;;3.85;1.30;;;;;;;;;;6067132;23;20014;-87
2023/07/15 11:26:36;;;;;;;2.67;1.67;;;;;;;;;;6068271;23;20316;-86
2023/07/15 11:29:12;;;;;;;5.10;1.42;;;;;;;;;;6066877;23;20061;-87
2023/07/15 11:31:39;;;;;;;3.08;1.40;;;;;;;;;;6067443;23;20415;-87
2023/07/15 11:34:09;;;;;;;2.83;1.25;;;;;;;;;;6067353;23;20002;-87
2023/07/15 11:36:34;;;;;;;2.17;1.30;;;;;;;;;;6067327;23;20003;-88
2023/07/15 11:39:00;;;;;;;2.80;0.80;;;;;;;;;;6067600;23;20185;-87
2023/07/15 11:41:26;;;;;;;1.92;0.93;;;;;;;;;;6090120;23;20018;-87
2023/07/15 11:43:51;;;;;;;3.78;1.48;;;;;;;;;;6068772;23;20003;-88
2023/07/15 11:46:21;;;;;;;3.75;2.00;;;;;;;;;;6070633;23;20450;-88
2023/07/15 11:48:46;;;;;;;1.58;1.05;;;;;;;;;;6069517;23;20017;-87
2023/07/15 11:51:11;;;;;;;2.10;0.85;;;;;;;;;;6069846;23;19998;-87
2023/07/15 11:53:38;;;;;;;3.20;1.60;;;;;;;;;;6071049;23;20011;-88
2023/07/15 11:56:05;;;;;;;2.63;1.60;;;;;;;;;;6069567;23;20007;-88
2023/07/15 11:58:37;;;;;;;3.10;1.65;;;;;;;;;;6068857;23;20009;-87
2023/07/15 12:01:03;;;;;;;6.38;2.10;;;;;;;;;;6070062;23;20054;-87
2023/07/15 12:03:28;;;;;;;2.53;1.40;;;;;;;;;;6071312;23;20010;-87
2023/07/15 12:05:54;;;;;;;2.22;1.50;;;;;;;;;;6071146;23;20069;-88
2023/07/15 12:08:19;;;;;;;2.42;0.95;;;;;;;;;;6070240;23;20006;-88
2023/07/15 12:10:51;;;;;;;9.77;1.48;;;;;;;;;;6068160;23;20360;-88
2023/07/15 12:13:20;;;;;;;;;;;;;;;;;;6069029;23;20090;-89
2023/07/15 12:15:45;;;;;;;5.78;1.40;;;;;;;;;;6092475;23;19901;-88
2023/07/15 12:18:11;;;;;;;4.90;1.33;;;;;;;;;;6068605;23;20427;-88
2023/07/15 12:20:36;;;;;;;3.97;1.42;;;;;;;;;;6068226;23;20034;-87
2023/07/15 12:23:01;;;;;;;2.83;1.13;;;;;;;;;;6092310;23;20010;-88
2023/07/15 12:25:26;;;;;;;2.55;1.35;;;;;;;;;;6068412;23;20002;-88
2023/07/15 12:27:52;;;;;;;4.88;1.63;;;;;;;;;;6068206;23;20006;-87
2023/07/15 12:30:17;;;;;;;4.63;1.63;;;;;;;;;;6068395;23;19999;-88
2023/07/15 12:32:42;;;;;;;2.38;1.50;;;;;;;;;;6068411;23;20019;-88
2023/07/15 12:35:08;;;;;;;4.60;1.70;;;;;;;;;;6068280;23;20013;-87
2023/07/15 12:37:33;;;;;;;2.78;1.80;;;;;;;;;;6068344;23;19999;-88
2023/07/15 12:40:01;;;;;;;2.97;1.50;;;;;;;;;;6067773;23;20086;-88
2023/07/15 12:42:26;;;;;;;4.32;1.90;;;;;;;;;;6068294;23;20007;-88
2023/07/15 12:44:51;;;;;;;4.32;1.33;;;;;;;;;;6068151;23;20009;-88
2023/07/15 12:47:16;;;;;;;4.10;1.48;;;;;;;;;;6068109;23;20003;-87
2023/07/15 12:49:42;;;;;;;2.45;1.52;;;;;;;;;;6068667;23;20419;-88
2023/07/15 12:52:07;;;;;;;4.25;1.40;;;;;;;;;;6092277;23;20010;-88
2023/07/15 12:54:33;;;;;;;2.92;1.42;;;;;;;;;;6068254;23;20013;-88
2023/07/15 12:56:58;;;;;;;4.13;1.73;;;;;;;;;;6068225;23;20006;-88
2023/07/15 12:59:24;;;;;;;2.78;1.58;;;;;;;;;;6069260;23;20273;-88
2023/07/15 13:01:49;;;;;;;3.08;1.63;;;;;;;;;;6069614;23;19995;-87
2023/07/15 13:04:14;;;;;;;6.95;1.30;;;;;;;;;;6068160;23;20007;-88
2023/07/15 13:06:39;;;;;;;3.33;1.58;;;;;;;;;;6069769;23;20002;-87
2023/07/15 13:09:05;;;;;;;2.83;1.20;;;;;;;;;;6068843;23;20085;-88
2023/07/15 13:11:30;;;;;;;2.63;1.30;;;;;;;;;;6068810;23;20090;-89
2023/07/15 13:13:56;;;;;;;2.47;1.10;;;;;;;;;;6069344;23;20348;-89
2023/07/15 13:16:21;;;;;;;2.22;1.20;;;;;;;;;;6068723;23;20010;-88
2023/07/15 13:18:46;;;;;;;3.60;1.35;;;;;;;;;;6070592;23;20139;-88
2023/07/15 13:21:12;;;;;;;4.47;1.60;;;;;;;;;;6067825;23;20006;-87
2023/07/15 13:23:37;;;;;;;2.85;1.33;;;;;;;;;;6067384;23;20070;-88
2023/07/15 13:26:02;;;;;;;3.38;1.50;;;;;;;;;;6069223;23;19999;-88
2023/07/15 13:28:28;;;;;;;2.97;1.20;;;;;;;;;;6067354;23;20073;-89
2023/07/15 13:30:53;;;;;;;3.90;1.05;;;;;;;;;;6067539;23;20003;-88
2023/07/15 13:33:18;;;;;;;2.10;1.10;;;;;;;;;;6067535;23;20003;-89
2023/07/15 13:35:43;;;;;;;2.67;1.10;;;;;;;;;;6068701;23;20009;-89
2023/07/15 13:38:09;;;;;;;5.03;1.45;;;;;;;;;;6066974;23;20013;-89
2023/07/15 13:40:34;;;;;;;1.92;0.50;;;;;;;;;;6067072;23;20589;-88
2023/07/15 13:42:59;;;;;;;12.07;1.80;;;;;;;;;;6067045;23;20014;-88
2023/07/15 13:45:24;;;;;;;2.97;1.40;;;;;;;;;;6067546;23;20009;-89
2023/07/15 13:47:53;;;;;;;3.60;1.80;;;;;;;;;;6066992;23;20029;-88
2023/07/15 13:50:18;;;;;;;5.35;1.83;;;;;;;;;;6066965;23;20309;-88
2023/07/15 13:52:44;;;;;;;5.50;1.42;;;;;;;;;;6067034;23;20010;-88
2023/07/15 13:55:09;;;;;;;2.22;1.15;;;;;;;;;;6067120;23;20003;-87
2023/07/15 13:57:34;;;;;;;2.72;1.48;;;;;;;;;;6067316;23;20415;-87
2023/07/15 13:59:59;;;;;;;6.43;1.30;;;;;;;;;;6066815;23;20003;-87
2023/07/15 14:02:24;;;;;;;3.90;1.67;;;;;;;;;;6066745;23;20003;-88
2023/07/15 14:04:50;;;;;;;5.50;1.67;;;;;;;;;;6067155;23;20085;-87
2023/07/15 14:07:15;;;;;;;5.30;1.55;;;;;;;;;;6090242;23;20006;-89
2023/07/15 14:09:40;;;;;;;5.22;1.90;;;;;;;;;;6066977;23;20022;-87
2023/07/15 14:12:06;;;;;;;2.03;1.00;;;;;;;;;;6068192;23;20038;-88
2023/07/15 14:14:31;;;;;;;4.20;1.30;;;;;;;;;;6066769;23;20395;-89
2023/07/15 14:16:57;;;;;;;4.07;1.30;;;;;;;;;;6090159;23;20007;-87
2023/07/15 14:19:22;;;;;;;2.67;1.65;;;;;;;;;;6068391;23;20002;-86
2023/07/15 14:21:47;;;;;;;3.30;1.40;;;;;;;;;;6065996;23;20446;-86
2023/07/15 14:24:12;;;;;;;3.88;1.33;;;;;;;;;;6066384;23;20035;-88
2023/07/15 14:26:38;;;;;;;2.65;1.58;;;;;;;;;;6066497;23;20393;-88
2023/07/15 14:29:04;;;;;;;2.83;1.65;;;;;;;;;;6090425;23;20487;-88
2023/07/15 14:31:33;;;;;;;4.30;1.50;;;;;;;;;;6090541;23;20170;-88
2023/07/15 14:33:58;;;;;;;5.15;1.10;;;;;;;;;;6066407;23;20003;-86
2023/07/15 14:36:24;;;;;;;7.32;1.75;;;;;;;;;;6067849;23;20010;-86
2023/07/15 14:38:50;;;;;;;3.00;1.10;;;;;;;;;;6066780;23;20018;-86